ALXO2: Washita River, Alex, OK

Data processed at Tue May 21 2019 23:50


All information presented herein is the property of the government of the United States of America and may be revised or deleted at any time without prior notice.
Dissemination of this information without the expressed written consent of the Public Affairs Office, Tulsa District U.S. Army Corps of Engineers is strictly prohibited.
These data are gathered electronically and, as presented, have not undergone any form of quality control. These data are not guaranteed to be valid or correct.
Go to home page.
Go to station list.
Go to home page.

Upstream stations:

Downstream station:
Previous Day
Next Day
Current Day
    
SHEF ID:       ALXO2     Washita River at Alex, OK
STATION TYPE:  
Regulating: Stage =    19.00, Flow =    19987

               PRECIP     STAGE  RIV-FLOW  BAT-LOAD
                   in        ft       cfs      volt
              Ccp-Rev   Ccp-Rev   Ccp-Rev   Ccp-Rev
(US/Central)
05/21 00:00      0.42      7.89      3820     12.57
05/21 01:00      0.01      7.97      3886     12.57
05/21 02:00      0.00      7.96      3878     12.49
05/21 03:00      0.03      7.97      3886     12.49
05/21 04:00      0.56      8.18      4062     12.41
05/21 05:00      0.10      8.47      4311     12.41
05/21 06:00      0.14      8.83      4627     12.41
05/21 07:00      0.14      9.32      5074     12.41
05/21 08:00      0.00      9.96      5684     12.41
05/21 09:00      0.00     10.65      6375     12.57
05/21 10:00      0.00     11.43      7212     12.65
05/21 11:00      0.00     12.29      8384     12.81
05/21 12:00      0.00     13.09      9540     13.21
05/21 13:00      0.00     13.92     10807     13.05
05/21 14:00      0.00     14.45     11651      ----
05/21 15:00      0.00     14.93     12439     12.81
05/21 16:00      0.00     15.37     13181     12.89
05/21 17:00      0.00     15.68     13715     12.89
05/21 18:00      0.00     16.04     14346     12.89
05/21 19:00      0.00     16.27     14755     12.89
05/21 20:00      0.00     16.31     14827     12.81
05/21 21:00      0.00     16.49     15151     12.65
05/21 22:00      0.00     16.55     15260     12.57
05/21 23:00      0.00     16.57     15297     12.57